createdAt,value
2023-05-19T00:00:27.728Z,9.30
2023-05-19T00:01:25.941Z,9.30
2023-05-19T00:02:25.951Z,9.28
2023-05-19T00:03:25.855Z,9.30
2023-05-19T00:04:25.718Z,9.25
2023-05-19T00:05:25.728Z,9.27
2023-05-19T00:06:25.798Z,9.25
2023-05-19T00:07:25.822Z,9.24
2023-05-19T00:08:25.730Z,9.23
2023-05-19T00:09:25.750Z,9.18
2023-05-19T00:10:25.700Z,9.18
2023-05-19T00:11:25.629Z,9.15
2023-05-19T00:12:25.631Z,9.13
2023-05-19T00:13:25.669Z,9.06
2023-05-19T00:14:27.093Z,9.06
2023-05-19T00:15:25.621Z,9.05
2023-05-19T00:16:25.741Z,9.02
2023-05-19T00:17:25.570Z,9.04
2023-05-19T00:18:25.610Z,9.02
2023-05-19T00:19:25.665Z,9.04
2023-05-19T00:20:25.668Z,9.02
2023-05-19T00:21:26.994Z,9.01
2023-05-19T00:22:25.592Z,9.02
2023-05-19T00:23:25.550Z,9.02
2023-05-19T00:24:25.505Z,9.01
2023-05-19T00:25:25.491Z,9.01
2023-05-19T00:26:25.442Z,9.01
2023-05-19T00:27:27.453Z,9.01
2023-05-19T00:28:25.529Z,8.99
2023-05-19T00:29:25.548Z,9.02
2023-05-19T00:30:25.448Z,8.97
2023-05-19T00:31:25.428Z,8.99
2023-05-19T00:32:25.490Z,9.01
2023-05-19T00:33:25.437Z,9.01
2023-05-19T00:34:25.585Z,8.99
2023-05-19T00:35:25.374Z,8.96
2023-05-19T00:36:25.384Z,8.97
2023-05-19T00:37:25.345Z,8.93
2023-05-19T00:38:25.375Z,8.93
2023-05-19T00:39:25.386Z,8.90
2023-05-19T00:40:25.318Z,8.91
2023-05-19T00:41:25.279Z,8.91
2023-05-19T00:42:25.307Z,8.88
2023-05-19T00:43:25.342Z,8.87
2023-05-19T00:44:25.302Z,8.87
2023-05-19T00:45:25.251Z,8.86
2023-05-19T00:46:25.382Z,8.81
2023-05-19T00:47:26.810Z,8.83
2023-05-19T00:48:25.300Z,8.81
2023-05-19T00:49:25.255Z,8.81
2023-05-19T00:50:25.216Z,8.76
2023-05-19T00:51:25.251Z,8.78
2023-05-19T00:52:25.158Z,8.76
2023-05-19T00:53:25.313Z,8.75
2023-05-19T00:54:25.181Z,8.75
2023-05-19T00:55:25.236Z,8.73
2023-05-19T00:56:25.116Z,8.72
2023-05-19T00:57:25.251Z,8.71
2023-05-19T00:58:25.266Z,8.68
2023-05-19T00:59:25.084Z,8.65
2023-05-19T01:00:26.172Z,8.65
2023-05-19T01:01:25.186Z,8.62
2023-05-19T01:02:25.258Z,8.65
2023-05-19T01:03:25.292Z,8.62
2023-05-19T01:04:25.085Z,8.62
2023-05-19T01:05:25.069Z,8.57
2023-05-19T01:06:25.020Z,8.55
2023-05-19T01:07:26.988Z,8.54
2023-05-19T01:08:25.121Z,8.55
2023-05-19T01:09:25.004Z,8.53
2023-05-19T01:10:24.975Z,8.53
2023-05-19T01:11:24.965Z,8.54
2023-05-19T01:12:26.966Z,8.51
2023-05-19T01:13:24.997Z,8.53
2023-05-19T01:14:25.010Z,8.48
2023-05-19T01:15:25.035Z,8.48
2023-05-19T01:16:25.060Z,8.47
2023-05-19T01:17:25.021Z,8.42
2023-05-19T01:18:24.876Z,8.44
2023-05-19T01:19:25.950Z,8.44
2023-05-19T01:20:24.923Z,8.40
2023-05-19T01:21:24.884Z,8.37
2023-05-19T01:22:24.884Z,8.39
2023-05-19T01:23:24.831Z,8.39
2023-05-19T01:24:24.831Z,8.37
2023-05-19T01:25:24.902Z,8.35
2023-05-19T01:26:26.848Z,8.36
2023-05-19T01:27:24.897Z,8.36
2023-05-19T01:28:24.864Z,8.36
2023-05-19T01:29:24.723Z,8.36
2023-05-19T01:30:24.800Z,8.33
2023-05-19T01:31:24.868Z,8.29
2023-05-19T01:32:24.718Z,8.29
2023-05-19T01:33:26.682Z,8.25
2023-05-19T01:34:24.741Z,8.20
2023-05-19T01:35:24.839Z,8.20
2023-05-19T01:36:24.690Z,8.20
2023-05-19T01:37:24.681Z,8.20
2023-05-19T01:38:24.749Z,8.20
2023-05-19T01:39:26.241Z,8.20
2023-05-19T01:40:24.687Z,8.15
2023-05-19T01:41:24.667Z,8.17
2023-05-19T01:42:24.631Z,8.15
2023-05-19T01:43:24.622Z,8.12
2023-05-19T01:44:24.647Z,8.14
2023-05-19T01:45:24.741Z,8.12
2023-05-19T01:46:26.240Z,8.11
2023-05-19T01:47:24.727Z,8.11
2023-05-19T01:48:24.579Z,8.10
2023-05-19T01:49:24.614Z,8.08
2023-05-19T01:50:24.579Z,8.10
2023-05-19T01:51:24.593Z,8.07
2023-05-19T01:52:24.578Z,8.08
2023-05-19T01:53:24.660Z,8.10
2023-05-19T01:54:24.580Z,8.07
2023-05-19T01:55:24.548Z,8.07
2023-05-19T01:56:24.508Z,8.02
2023-05-19T01:57:24.447Z,8.02
2023-05-19T01:58:24.434Z,8.00
2023-05-19T01:59:26.387Z,8.00
2023-05-19T02:00:24.445Z,8.02
2023-05-19T02:01:24.488Z,7.99
2023-05-19T02:02:24.479Z,8.02
2023-05-19T02:03:24.402Z,7.99
2023-05-19T02:04:24.425Z,8.00
2023-05-19T02:05:24.368Z,7.97
2023-05-19T02:06:25.787Z,7.96
2023-05-19T02:07:24.484Z,7.93
2023-05-19T02:08:24.397Z,7.93
2023-05-19T02:09:24.450Z,7.92
2023-05-19T02:10:24.318Z,7.90
2023-05-19T02:11:24.315Z,7.87
2023-05-19T02:12:24.373Z,7.84
2023-05-19T02:13:25.853Z,7.82
2023-05-19T02:14:24.263Z,7.78
2023-05-19T02:15:24.261Z,7.75
2023-05-19T02:16:24.347Z,7.74
2023-05-19T02:17:24.292Z,7.75
2023-05-19T02:18:24.178Z,7.75
2023-05-19T02:19:24.645Z,7.75
2023-05-19T02:20:24.235Z,7.72
2023-05-19T02:21:24.278Z,7.74
2023-05-19T02:22:24.273Z,7.72
2023-05-19T02:23:24.184Z,7.72
2023-05-19T02:24:24.189Z,7.67
2023-05-19T02:25:24.207Z,7.67
2023-05-19T02:26:25.802Z,7.63
2023-05-19T02:27:24.172Z,7.67
2023-05-19T02:28:24.137Z,7.62
2023-05-19T02:29:24.179Z,7.62
2023-05-19T02:30:24.122Z,7.60
2023-05-19T02:31:24.171Z,7.62
2023-05-19T02:32:24.136Z,7.60
2023-05-19T02:33:25.582Z,7.62
2023-05-19T02:34:24.131Z,7.63
2023-05-19T02:35:24.149Z,7.60
2023-05-19T02:36:24.159Z,7.62
2023-05-19T02:37:24.044Z,7.63
2023-05-19T02:38:24.070Z,7.63
2023-05-19T02:39:24.029Z,7.63
2023-05-19T02:40:26.066Z,7.60
2023-05-19T02:41:24.081Z,7.60
2023-05-19T02:42:23.989Z,7.66
2023-05-19T02:43:23.974Z,7.60
2023-05-19T02:44:23.977Z,7.59
2023-05-19T02:45:24.011Z,7.58
2023-05-19T02:46:24.013Z,7.55
2023-05-19T02:47:26.131Z,7.50
2023-05-19T02:48:23.965Z,7.49
2023-05-19T02:49:24.066Z,7.47
2023-05-19T02:50:23.964Z,7.44
2023-05-19T02:51:23.927Z,7.42
2023-05-19T02:52:23.879Z,7.45
2023-05-19T02:53:23.858Z,7.44
2023-05-19T02:54:25.471Z,7.47
2023-05-19T02:55:23.900Z,7.47
2023-05-19T02:56:23.870Z,7.49
2023-05-19T02:57:23.924Z,7.49
2023-05-19T02:58:23.829Z,7.45
2023-05-19T02:59:25.620Z,7.45
2023-05-19T03:00:23.880Z,7.42
2023-05-19T03:01:23.796Z,7.41
2023-05-19T03:02:23.769Z,7.38
2023-05-19T03:03:23.845Z,7.41
2023-05-19T03:04:23.766Z,7.38
2023-05-19T03:05:23.717Z,7.37
2023-05-19T03:06:23.747Z,7.35
2023-05-19T03:07:25.684Z,7.34
2023-05-19T03:08:23.707Z,7.34
2023-05-19T03:09:23.755Z,7.32
2023-05-19T03:10:23.696Z,7.35
2023-05-19T03:11:23.662Z,7.34
2023-05-19T03:12:23.667Z,7.35
2023-05-19T03:13:23.743Z,7.38
2023-05-19T03:14:24.164Z,7.37
2023-05-19T03:15:23.655Z,7.35
2023-05-19T03:16:23.657Z,7.34
2023-05-19T03:17:23.773Z,7.31
2023-05-19T03:18:23.718Z,7.26
2023-05-19T03:19:23.697Z,7.24
2023-05-19T03:20:23.734Z,7.24
2023-05-19T03:21:23.563Z,7.24
2023-05-19T03:22:23.686Z,7.23
2023-05-19T03:23:23.588Z,7.24
2023-05-19T03:24:23.491Z,7.23
2023-05-19T03:25:23.570Z,7.22
2023-05-19T03:26:23.518Z,7.20
2023-05-19T03:27:25.345Z,7.19
2023-05-19T03:28:23.526Z,7.19
2023-05-19T03:29:23.476Z,7.15
2023-05-19T03:30:23.521Z,7.15
2023-05-19T03:31:23.467Z,7.15
2023-05-19T03:32:23.605Z,7.12
2023-05-19T03:33:23.690Z,7.13
2023-05-19T03:34:23.487Z,7.09
2023-05-19T03:35:23.441Z,7.12
2023-05-19T03:36:23.427Z,7.12
2023-05-19T03:37:23.404Z,7.09
2023-05-19T03:38:23.382Z,7.12
2023-05-19T03:39:23.396Z,7.09
2023-05-19T03:40:23.626Z,7.12
2023-05-19T03:41:23.368Z,7.13
2023-05-19T03:42:23.332Z,7.09
2023-05-19T03:43:23.334Z,7.13
2023-05-19T03:44:23.314Z,7.16
2023-05-19T03:45:23.307Z,7.16
2023-05-19T03:46:23.344Z,7.16
2023-05-19T03:47:23.490Z,7.17
2023-05-19T03:48:23.259Z,7.19
2023-05-19T03:49:23.395Z,7.22
2023-05-19T03:50:23.276Z,7.17
2023-05-19T03:51:23.314Z,7.22
2023-05-19T03:52:23.259Z,7.23
2023-05-19T03:53:23.381Z,7.24
2023-05-19T03:54:23.200Z,7.23
2023-05-19T03:55:23.293Z,7.23
2023-05-19T03:56:23.154Z,7.24
2023-05-19T03:57:23.212Z,7.22
2023-05-19T03:58:23.187Z,7.24
2023-05-19T03:59:23.323Z,7.27
2023-05-19T04:00:23.330Z,7.27
2023-05-19T04:01:23.185Z,7.29
2023-05-19T04:02:23.203Z,7.27
2023-05-19T04:03:23.152Z,7.29
2023-05-19T04:04:23.182Z,7.29
2023-05-19T04:05:23.073Z,7.29
2023-05-19T04:06:23.046Z,7.29
2023-05-19T04:07:23.094Z,7.27
2023-05-19T04:08:23.035Z,7.32
2023-05-19T04:09:23.068Z,7.35
2023-05-19T04:10:23.015Z,7.34
2023-05-19T04:11:23.029Z,7.37
2023-05-19T04:12:23.000Z,7.38
2023-05-19T04:13:23.062Z,7.38
2023-05-19T04:14:23.033Z,7.41
2023-05-19T04:15:22.994Z,7.41
2023-05-19T04:16:23.054Z,7.41
2023-05-19T04:17:23.015Z,7.42
2023-05-19T04:18:22.980Z,7.44
2023-05-19T04:19:24.594Z,7.45
2023-05-19T04:20:22.969Z,7.50
2023-05-19T04:21:22.917Z,7.52
2023-05-19T04:22:22.852Z,7.52
2023-05-19T04:23:22.914Z,7.53
2023-05-19T04:24:22.894Z,7.55
2023-05-19T04:25:22.899Z,7.58
2023-05-19T04:26:24.315Z,7.58
2023-05-19T04:27:22.943Z,7.58
2023-05-19T04:28:22.937Z,7.58
2023-05-19T04:29:22.825Z,7.59
2023-05-19T04:30:22.914Z,7.59
2023-05-19T04:31:22.905Z,7.63
2023-05-19T04:32:22.839Z,7.63
2023-05-19T04:33:22.890Z,7.67
2023-05-19T04:34:22.819Z,7.72
2023-05-19T04:35:22.790Z,7.77
2023-05-19T04:36:22.748Z,7.82
2023-05-19T04:37:22.778Z,7.82
2023-05-19T04:38:22.763Z,7.84
2023-05-19T04:39:22.737Z,7.82
2023-05-19T04:40:22.734Z,7.85
2023-05-19T04:41:22.801Z,7.89
2023-05-19T04:42:22.777Z,7.90
2023-05-19T04:43:22.680Z,7.96
2023-05-19T04:44:22.667Z,7.97
2023-05-19T04:45:22.733Z,8.02
2023-05-19T04:46:22.776Z,8.12
2023-05-19T04:47:24.099Z,8.32
2023-05-19T04:48:22.585Z,8.53
2023-05-19T04:49:22.619Z,8.71
2023-05-19T04:50:22.583Z,8.93
2023-05-19T04:51:22.589Z,9.10
2023-05-19T04:52:22.608Z,9.20
2023-05-19T04:53:24.539Z,9.24
2023-05-19T04:54:24.039Z,9.35
2023-05-19T04:55:22.598Z,9.45
2023-05-19T04:56:22.561Z,9.63
2023-05-19T04:57:22.496Z,9.68
2023-05-19T04:58:22.469Z,9.75
2023-05-19T04:59:22.502Z,9.78
2023-05-19T05:00:22.597Z,9.73
2023-05-19T05:01:22.695Z,9.70
2023-05-19T05:02:22.683Z,9.76
2023-05-19T05:03:22.576Z,9.78
2023-05-19T05:04:22.508Z,9.82
2023-05-19T05:05:22.566Z,9.70
2023-05-19T05:06:22.724Z,9.61
2023-05-19T05:07:24.257Z,9.53
2023-05-19T05:08:22.390Z,9.46
2023-05-19T05:09:24.158Z,9.43
2023-05-19T05:10:22.455Z,9.42
2023-05-19T05:11:22.518Z,9.46
2023-05-19T05:12:22.420Z,9.50
2023-05-19T05:13:22.339Z,9.57
2023-05-19T05:14:24.094Z,9.57
2023-05-19T05:15:22.393Z,9.61
2023-05-19T05:16:22.384Z,9.63
2023-05-19T05:17:22.381Z,9.61
2023-05-19T05:18:22.406Z,9.67
2023-05-19T05:19:22.430Z,9.68
2023-05-19T05:20:22.270Z,9.70
2023-05-19T05:21:22.247Z,9.70
2023-05-19T05:22:22.240Z,9.71
2023-05-19T05:23:22.243Z,9.71
2023-05-19T05:24:22.243Z,9.82
2023-05-19T05:25:23.715Z,9.79
2023-05-19T05:26:22.199Z,9.83
2023-05-19T05:27:22.171Z,9.89
2023-05-19T05:28:22.183Z,9.88
2023-05-19T05:29:22.163Z,9.91
2023-05-19T05:30:22.150Z,9.99
2023-05-19T05:31:22.248Z,10.01
2023-05-19T05:32:24.123Z,10.06
2023-05-19T05:33:22.304Z,10.04
2023-05-19T05:34:22.108Z,10.03
2023-05-19T05:35:22.083Z,10.09
2023-05-19T05:36:22.113Z,10.03
2023-05-19T05:37:22.072Z,10.04
2023-05-19T05:38:22.141Z,10.03
2023-05-19T05:39:22.069Z,10.07
2023-05-19T05:40:22.057Z,10.12
2023-05-19T05:41:22.052Z,10.14
2023-05-19T05:42:22.048Z,10.24
2023-05-19T05:43:23.844Z,10.32
2023-05-19T05:44:21.985Z,10.40
2023-05-19T05:45:24.029Z,10.47
2023-05-19T05:46:22.078Z,10.52
2023-05-19T05:47:22.073Z,10.53
2023-05-19T05:48:21.960Z,10.52
2023-05-19T05:49:21.969Z,10.56
2023-05-19T05:50:21.937Z,10.58
2023-05-19T05:51:22.268Z,10.60
2023-05-19T05:52:23.109Z,10.66
2023-05-19T05:53:22.419Z,10.73
2023-05-19T05:54:22.473Z,10.83
2023-05-19T05:55:22.924Z,10.88
2023-05-19T05:56:25.483Z,10.98
2023-05-19T05:57:24.269Z,10.99
2023-05-19T05:58:23.374Z,11.11
2023-05-19T05:59:24.689Z,11.13
2023-05-19T06:00:22.337Z,11.21
2023-05-19T06:01:24.416Z,11.28
2023-05-19T06:02:22.862Z,11.38
2023-05-19T06:03:22.777Z,11.44
2023-05-19T06:04:22.305Z,11.53
2023-05-19T06:05:22.545Z,11.56
2023-05-19T06:06:21.881Z,11.64
2023-05-19T06:07:22.507Z,11.68
2023-05-19T06:08:22.564Z,11.75
2023-05-19T06:09:22.562Z,11.80
2023-05-19T06:10:24.594Z,11.83
2023-05-19T06:11:23.233Z,11.86
2023-05-19T06:12:22.257Z,11.93
2023-05-19T06:13:22.054Z,11.94
2023-05-19T06:14:22.573Z,12.01
2023-05-19T06:15:22.746Z,12.06
2023-05-19T06:16:22.549Z,12.08
2023-05-19T06:17:22.022Z,12.09
2023-05-19T06:18:21.584Z,12.15
2023-05-19T06:19:21.740Z,12.19
2023-05-19T06:20:21.555Z,12.23
2023-05-19T06:21:21.511Z,12.26
2023-05-19T06:22:21.544Z,12.30
2023-05-19T06:23:21.820Z,12.39
2023-05-19T06:24:21.509Z,12.46
2023-05-19T06:25:21.868Z,12.51
2023-05-19T06:26:21.522Z,12.57
2023-05-19T06:27:21.666Z,12.64
2023-05-19T06:28:21.518Z,12.71
2023-05-19T06:29:23.421Z,12.67
2023-05-19T06:30:21.534Z,12.75
2023-05-19T06:31:21.804Z,12.84
2023-05-19T06:32:22.153Z,12.88
2023-05-19T06:33:22.460Z,12.97
2023-05-19T06:34:22.392Z,13.06
2023-05-19T06:35:23.247Z,13.17
2023-05-19T06:36:22.117Z,13.44
2023-05-19T06:37:21.459Z,13.54
2023-05-19T06:38:22.867Z,13.67
2023-05-19T06:39:21.474Z,13.70
2023-05-19T06:40:21.517Z,13.76
2023-05-19T06:41:23.059Z,13.87
2023-05-19T06:42:22.082Z,13.91
2023-05-19T06:43:21.858Z,13.81
2023-05-19T06:44:22.122Z,13.76
2023-05-19T06:45:21.334Z,13.70
2023-05-19T06:46:22.921Z,13.67
2023-05-19T06:47:21.366Z,13.59
2023-05-19T06:48:21.271Z,13.54
2023-05-19T06:49:21.397Z,13.52
2023-05-19T06:50:21.641Z,13.47
2023-05-19T06:51:22.834Z,13.37
2023-05-19T06:52:21.251Z,13.36
2023-05-19T06:53:21.250Z,13.30
2023-05-19T06:54:21.291Z,13.32
2023-05-19T06:55:21.252Z,13.33
2023-05-19T06:56:21.255Z,13.36
2023-05-19T06:57:21.311Z,13.38
2023-05-19T06:58:21.251Z,13.40
2023-05-19T06:59:22.702Z,13.41
2023-05-19T07:00:23.098Z,13.41
2023-05-19T07:01:22.760Z,13.47
2023-05-19T07:02:21.137Z,13.49
2023-05-19T07:03:21.327Z,13.52
2023-05-19T07:04:24.474Z,13.58
2023-05-19T07:05:21.160Z,13.58
2023-05-19T07:06:21.308Z,13.59
2023-05-19T07:07:21.096Z,13.58
2023-05-19T07:08:21.078Z,13.67
2023-05-19T07:09:23.677Z,13.73
2023-05-19T07:10:21.398Z,13.76
2023-05-19T07:11:21.033Z,13.77
2023-05-19T07:12:21.268Z,13.81
2023-05-19T07:13:21.009Z,13.83
2023-05-19T07:14:22.934Z,13.88
2023-05-19T07:15:22.987Z,13.87
2023-05-19T07:16:21.225Z,13.83
2023-05-19T07:17:21.064Z,13.77
2023-05-19T07:18:20.982Z,13.77
2023-05-19T07:19:20.997Z,13.81
2023-05-19T07:20:20.923Z,13.87
2023-05-19T07:21:20.946Z,13.91
2023-05-19T07:22:20.956Z,13.94
2023-05-19T07:23:20.903Z,13.95
2023-05-19T07:24:21.387Z,13.99
2023-05-19T07:25:21.169Z,14.06
2023-05-19T07:26:20.936Z,14.09
2023-05-19T07:27:20.938Z,14.09
2023-05-19T07:28:20.846Z,14.12
2023-05-19T07:29:22.362Z,14.13
2023-05-19T07:30:20.850Z,14.16
2023-05-19T07:31:20.945Z,14.21
2023-05-19T07:32:21.003Z,14.25
2023-05-19T07:33:22.755Z,14.32
2023-05-19T07:34:20.761Z,14.43
2023-05-19T07:35:20.791Z,14.43
2023-05-19T07:36:20.808Z,14.49
2023-05-19T07:37:20.763Z,14.49
2023-05-19T07:38:20.741Z,14.53
2023-05-19T07:39:20.829Z,14.54
2023-05-19T07:40:22.684Z,14.56
2023-05-19T07:41:20.799Z,14.64
2023-05-19T07:42:20.739Z,14.62
2023-05-19T07:43:20.704Z,14.65
2023-05-19T07:44:20.666Z,14.68
2023-05-19T07:45:20.743Z,14.75
2023-05-19T07:46:20.752Z,14.75
2023-05-19T07:47:20.896Z,14.78
2023-05-19T07:48:20.651Z,14.83
2023-05-19T07:49:20.617Z,14.84
2023-05-19T07:50:20.643Z,14.91
2023-05-19T07:51:20.602Z,14.99
2023-05-19T07:52:20.614Z,15.02
2023-05-19T07:53:20.601Z,15.05
2023-05-19T07:54:20.742Z,15.09
2023-05-19T07:55:20.608Z,15.15
2023-05-19T07:56:20.557Z,15.20
2023-05-19T07:57:20.540Z,15.26
2023-05-19T07:58:20.526Z,15.24
2023-05-19T07:59:20.487Z,15.24
2023-05-19T08:00:20.569Z,15.28
2023-05-19T08:01:20.586Z,15.35
2023-05-19T08:02:20.523Z,15.35
2023-05-19T08:03:20.798Z,15.38
2023-05-19T08:04:20.598Z,15.43
2023-05-19T08:05:20.453Z,15.39
2023-05-19T08:06:20.442Z,15.41
2023-05-19T08:07:20.462Z,15.45
2023-05-19T08:08:20.696Z,15.49
2023-05-19T08:09:20.463Z,15.54
2023-05-19T08:10:20.359Z,15.61
2023-05-19T08:11:20.340Z,15.66
2023-05-19T08:12:20.403Z,15.70
2023-05-19T08:13:20.410Z,15.72
2023-05-19T08:14:20.489Z,15.76
2023-05-19T08:15:20.498Z,15.78
2023-05-19T08:16:20.429Z,15.79
2023-05-19T08:17:20.282Z,15.85
2023-05-19T08:18:20.356Z,15.86
2023-05-19T08:19:20.363Z,15.92
2023-05-19T08:20:20.306Z,15.92
2023-05-19T08:21:20.246Z,15.88
2023-05-19T08:22:20.588Z,15.86
2023-05-19T08:23:20.261Z,15.94
2023-05-19T08:24:20.232Z,15.93
2023-05-19T08:25:20.348Z,15.93
2023-05-19T08:26:20.216Z,15.99
2023-05-19T08:27:20.181Z,15.99
2023-05-19T08:28:20.342Z,16.01
2023-05-19T08:29:20.234Z,16.06
2023-05-19T08:30:20.234Z,16.11
2023-05-19T08:31:20.354Z,16.20
2023-05-19T08:32:20.133Z,16.25
2023-05-19T08:33:20.169Z,16.26
2023-05-19T08:34:20.107Z,16.30
2023-05-19T08:35:20.166Z,16.26
2023-05-19T08:36:20.088Z,16.27
2023-05-19T08:37:20.120Z,16.27
2023-05-19T08:38:20.134Z,16.30
2023-05-19T08:39:20.148Z,16.23
2023-05-19T08:40:20.042Z,16.23
2023-05-19T08:41:19.978Z,16.34
2023-05-19T08:42:20.046Z,16.42
2023-05-19T08:43:20.123Z,16.38
2023-05-19T08:44:20.030Z,16.45
2023-05-19T08:45:20.035Z,16.52
2023-05-19T08:46:20.044Z,16.60
2023-05-19T08:47:19.994Z,16.60
2023-05-19T08:48:19.974Z,16.59
2023-05-19T08:49:19.963Z,16.62
2023-05-19T08:50:19.969Z,16.73
2023-05-19T08:51:19.963Z,16.86
2023-05-19T08:52:19.983Z,16.90
2023-05-19T08:53:32.376Z,17.00
2023-05-19T08:54:20.919Z,17.10
2023-05-19T08:55:19.912Z,17.23
2023-05-19T08:56:19.970Z,17.36
2023-05-19T08:57:19.918Z,17.44
2023-05-19T08:58:19.845Z,17.54
2023-05-19T08:59:19.864Z,17.62
2023-05-19T09:00:19.802Z,17.62
2023-05-19T09:01:19.940Z,17.67
2023-05-19T09:02:19.847Z,17.87
2023-05-19T09:03:23.752Z,18.00
2023-05-19T09:04:19.995Z,17.99
2023-05-19T09:05:20.058Z,18.07
2023-05-19T09:06:20.004Z,18.27
2023-05-19T09:07:19.753Z,18.42
2023-05-19T09:08:19.726Z,18.52
2023-05-19T09:09:19.717Z,18.54
2023-05-19T09:10:19.907Z,18.52
2023-05-19T09:11:21.702Z,18.57
2023-05-19T09:12:19.737Z,18.39
2023-05-19T09:13:19.666Z,18.31
2023-05-19T09:14:19.654Z,18.31
2023-05-19T09:15:19.728Z,18.33
2023-05-19T09:16:19.673Z,18.42
2023-05-19T09:17:19.720Z,18.54
2023-05-19T09:18:21.588Z,18.61
2023-05-19T09:19:19.678Z,18.65
2023-05-19T09:20:19.729Z,18.62
2023-05-19T09:21:19.615Z,18.73
2023-05-19T09:22:19.597Z,18.83
2023-05-19T09:23:19.634Z,18.90
2023-05-19T09:24:19.590Z,18.98
2023-05-19T09:25:19.581Z,18.99
2023-05-19T09:26:19.606Z,18.91
2023-05-19T09:27:19.545Z,18.82
2023-05-19T09:28:19.502Z,18.74
2023-05-19T09:29:19.585Z,18.64
2023-05-19T09:30:19.628Z,18.74
2023-05-19T09:31:19.521Z,18.72
2023-05-19T09:32:19.733Z,18.55
2023-05-19T09:33:19.703Z,18.34
2023-05-19T09:34:19.553Z,18.27
2023-05-19T09:35:19.475Z,18.27
2023-05-19T09:36:19.468Z,18.34
2023-05-19T09:37:19.439Z,18.49
2023-05-19T09:38:19.463Z,18.52
2023-05-19T09:39:19.670Z,18.52
2023-05-19T09:40:19.417Z,18.47
2023-05-19T09:41:19.368Z,18.54
2023-05-19T09:42:19.374Z,18.62
2023-05-19T09:43:19.452Z,18.59
2023-05-19T09:44:19.412Z,18.64
2023-05-19T09:45:19.312Z,18.74
2023-05-19T09:46:19.464Z,18.94
2023-05-19T09:47:19.334Z,19.02
2023-05-19T09:48:19.407Z,19.01
2023-05-19T09:49:19.256Z,19.15
2023-05-19T09:50:19.302Z,19.28
2023-05-19T09:51:19.278Z,19.36
2023-05-19T09:52:19.197Z,19.51
2023-05-19T09:53:19.587Z,19.66
2023-05-19T09:54:20.557Z,19.78
2023-05-19T09:55:19.237Z,19.68
2023-05-19T09:56:19.221Z,19.51
2023-05-19T09:57:19.223Z,19.36
2023-05-19T09:58:19.244Z,19.38
2023-05-19T09:59:19.186Z,19.29
2023-05-19T10:00:19.183Z,19.17
2023-05-19T10:01:19.393Z,19.13
2023-05-19T10:02:19.103Z,19.24
2023-05-19T10:03:19.212Z,19.31
2023-05-19T10:04:19.143Z,19.43
2023-05-19T10:05:19.182Z,19.57
2023-05-19T10:06:19.150Z,19.40
2023-05-19T10:07:19.176Z,19.10
2023-05-19T10:08:19.111Z,18.84
2023-05-19T10:09:19.076Z,18.68
2023-05-19T10:10:19.126Z,18.59
2023-05-19T10:11:19.156Z,18.59
2023-05-19T10:12:19.088Z,18.62
2023-05-19T10:13:18.998Z,18.65
2023-05-19T10:14:19.082Z,18.72
2023-05-19T10:15:20.754Z,18.76
2023-05-19T10:16:19.072Z,18.79
2023-05-19T10:17:18.952Z,18.91
2023-05-19T10:18:18.933Z,18.92
2023-05-19T10:19:19.009Z,19.01
2023-05-19T10:20:19.059Z,19.08
2023-05-19T10:21:18.992Z,19.06
2023-05-19T10:22:19.204Z,18.97
2023-05-19T10:23:18.887Z,18.83
2023-05-19T10:24:18.942Z,18.68
2023-05-19T10:25:18.943Z,18.59
2023-05-19T10:26:18.905Z,18.52
2023-05-19T10:27:18.893Z,18.70
2023-05-19T10:28:20.371Z,18.91
2023-05-19T10:29:18.936Z,19.11
2023-05-19T10:30:18.918Z,19.28
2023-05-19T10:31:18.802Z,19.24
2023-05-19T10:32:18.834Z,19.18
2023-05-19T10:33:18.855Z,19.18
2023-05-19T10:34:18.822Z,19.18
2023-05-19T10:35:20.824Z,19.01
2023-05-19T10:36:18.857Z,18.91
2023-05-19T10:37:18.736Z,18.91
2023-05-19T10:38:18.783Z,18.87
2023-05-19T10:39:18.824Z,18.94
2023-05-19T10:40:18.788Z,18.92
2023-05-19T10:41:18.718Z,18.80
2023-05-19T10:42:18.958Z,18.82
2023-05-19T10:43:18.721Z,18.77
2023-05-19T10:44:18.728Z,18.86
2023-05-19T10:45:18.681Z,18.97
2023-05-19T10:46:18.630Z,19.13
2023-05-19T10:47:18.801Z,19.24
2023-05-19T10:48:18.682Z,19.47
2023-05-19T10:49:18.791Z,19.68
2023-05-19T10:50:18.602Z,19.98
2023-05-19T10:51:18.628Z,20.08
2023-05-19T10:52:18.647Z,19.94
2023-05-19T10:53:18.613Z,19.80
2023-05-19T10:54:18.673Z,19.95
2023-05-19T10:55:18.505Z,20.10
2023-05-19T10:56:18.622Z,20.28
2023-05-19T10:57:18.576Z,20.13
2023-05-19T10:58:18.612Z,20.02
2023-05-19T10:59:18.575Z,19.66
2023-05-19T11:00:18.518Z,19.36
2023-05-19T11:01:18.582Z,19.10
2023-05-19T11:02:18.559Z,18.97
2023-05-19T11:03:18.789Z,18.97
2023-05-19T11:04:18.532Z,19.06
2023-05-19T11:05:18.508Z,19.14
2023-05-19T11:06:18.440Z,19.14
2023-05-19T11:07:18.519Z,19.28
2023-05-19T11:08:18.457Z,19.39
2023-05-19T11:09:19.503Z,19.29
2023-05-19T11:10:18.595Z,19.38
2023-05-19T11:11:18.430Z,19.65
2023-05-19T11:12:18.464Z,19.69
2023-05-19T11:13:18.352Z,19.66
2023-05-19T11:14:18.357Z,19.60
2023-05-19T11:15:18.335Z,19.60
2023-05-19T11:16:18.380Z,19.57
2023-05-19T11:17:20.288Z,19.57
2023-05-19T11:18:18.347Z,19.36
2023-05-19T11:19:18.346Z,19.31
2023-05-19T11:20:18.318Z,19.28
2023-05-19T11:21:18.317Z,19.28
2023-05-19T11:22:18.356Z,19.18
2023-05-19T11:23:18.315Z,19.10
2023-05-19T11:24:20.213Z,18.97
2023-05-19T11:25:18.320Z,18.90
2023-05-19T11:26:18.241Z,18.92
2023-05-19T11:27:18.220Z,18.92
2023-05-19T11:28:18.161Z,18.95
2023-05-19T11:29:18.172Z,19.10
2023-05-19T11:30:18.222Z,19.25
2023-05-19T11:31:18.413Z,19.47
2023-05-19T11:32:18.176Z,19.69
2023-05-19T11:33:18.176Z,19.97
2023-05-19T11:34:18.159Z,20.25
2023-05-19T11:35:18.156Z,20.61
2023-05-19T11:36:18.188Z,20.98
2023-05-19T11:37:18.132Z,21.26
2023-05-19T11:38:18.138Z,21.36
2023-05-19T11:39:18.217Z,21.34
2023-05-19T11:40:18.176Z,21.24
2023-05-19T11:41:19.529Z,20.74
2023-05-19T11:42:18.112Z,20.46
2023-05-19T11:43:18.054Z,20.34
2023-05-19T11:44:18.057Z,20.27
2023-05-19T11:45:18.078Z,19.98
2023-05-19T11:46:18.488Z,19.93
2023-05-19T11:47:18.047Z,19.86
2023-05-19T11:48:18.103Z,19.78
2023-05-19T11:49:17.994Z,19.61
2023-05-19T11:50:18.031Z,19.46
2023-05-19T11:51:17.959Z,19.40
2023-05-19T11:52:18.114Z,19.29
2023-05-19T11:53:20.172Z,19.31
2023-05-19T11:54:17.995Z,19.31
2023-05-19T11:55:18.011Z,19.35
2023-05-19T11:56:17.994Z,19.32
2023-05-19T11:57:17.904Z,19.33
2023-05-19T11:58:17.864Z,19.33
2023-05-19T11:59:19.881Z,19.48
2023-05-19T12:00:17.874Z,19.65
2023-05-19T12:01:17.877Z,19.78
2023-05-19T12:02:17.920Z,19.83
2023-05-19T12:03:17.918Z,19.84
2023-05-19T12:04:17.852Z,19.86
2023-05-19T12:05:17.958Z,19.83
2023-05-19T12:06:19.843Z,19.84
2023-05-19T12:07:17.788Z,19.80
2023-05-19T12:08:17.848Z,19.73
2023-05-19T12:09:19.624Z,19.70
2023-05-19T12:10:17.770Z,19.70
2023-05-19T12:11:18.157Z,19.73
2023-05-19T12:12:17.760Z,19.80
2023-05-19T12:13:17.925Z,19.78
2023-05-19T12:14:17.714Z,19.88
2023-05-19T12:15:17.854Z,20.00
2023-05-19T12:16:17.757Z,20.03
2023-05-19T12:17:17.709Z,20.02
2023-05-19T12:18:17.695Z,20.02
2023-05-19T12:19:17.770Z,20.05
2023-05-19T12:20:17.742Z,20.12
2023-05-19T12:21:17.694Z,20.15
2023-05-19T12:22:17.667Z,20.23
2023-05-19T12:23:17.741Z,20.30
2023-05-19T12:24:17.577Z,20.33
2023-05-19T12:25:17.604Z,20.34
2023-05-19T12:26:17.577Z,20.21
2023-05-19T12:27:21.106Z,20.12
2023-05-19T12:28:17.602Z,20.10
2023-05-19T12:29:17.531Z,20.24
2023-05-19T12:30:17.549Z,20.31
2023-05-19T12:31:17.554Z,20.27
2023-05-19T12:32:17.552Z,20.33
2023-05-19T12:33:17.492Z,20.46
2023-05-19T12:34:17.657Z,20.64
2023-05-19T12:35:17.479Z,20.71
2023-05-19T12:36:17.462Z,20.95
2023-05-19T12:37:17.507Z,21.14
2023-05-19T12:38:17.474Z,21.36
2023-05-19T12:39:18.431Z,21.24
2023-05-19T12:40:17.437Z,21.11
2023-05-19T12:41:17.494Z,21.06
2023-05-19T12:42:17.552Z,21.06
2023-05-19T12:43:17.417Z,21.01
2023-05-19T12:44:17.427Z,21.06
2023-05-19T12:45:17.357Z,21.19
2023-05-19T12:46:17.415Z,21.27
2023-05-19T12:47:17.340Z,21.32
2023-05-19T12:48:17.392Z,21.42
2023-05-19T12:49:17.792Z,21.53
2023-05-19T12:50:17.287Z,21.61
2023-05-19T12:51:17.371Z,21.61
2023-05-19T12:52:17.334Z,21.63
2023-05-19T12:53:17.325Z,21.46
2023-05-19T12:54:17.354Z,21.45
2023-05-19T12:55:18.812Z,21.57
2023-05-19T12:56:17.241Z,21.56
2023-05-19T12:57:17.351Z,21.50
2023-05-19T12:58:17.260Z,21.51
2023-05-19T12:59:26.969Z,21.32
2023-05-19T13:00:18.305Z,21.02
2023-05-19T13:01:17.706Z,20.77
2023-05-19T13:02:19.197Z,20.65
2023-05-19T13:03:17.430Z,20.51